Time;durP1;ratioP1;P1;durP2;ratioP2;P2;SDS_P1;SDS_P2;PMS_P1;PMS_P2;Temp;Humidity;BMP_temperature;BMP_pressure;BME280_temperature;BME280_humidity;BME280_pressure;Samples;Min_cycle;Max_cycle;Signal;HPM_P1;HPM_P2
2023/09/12 00:00:51;;;;;;;14.60;11.60;;;;;;;14.87;69.72;100699.30;107965;1257;60551;-73
2023/09/12 00:03:20;;;;;;;13.80;10.60;;;;;;;14.87;69.60;100700.11;107975;1254;59835;-71
2023/09/12 00:05:56;;;;;;;14.70;12.30;;;;;;;14.93;69.56;100701.17;108016;1254;73059;-71
2023/09/12 00:08:24;;;;;;;14.90;11.40;;;;;;;14.93;69.39;100701.66;107870;1253;73738;-71
2023/09/12 00:11:02;;;;;;;13.00;11.20;;;;;;;14.92;69.47;100702.14;108128;1253;71161;-71
2023/09/12 00:13:31;;;;;;;14.00;11.30;;;;;;;14.90;69.40;100705.82;107969;1254;63862;-71
2023/09/12 00:15:58;;;;;;;15.80;11.60;;;;;;;14.88;69.44;100704.71;107928;1257;59017;-73
2023/09/12 00:18:26;;;;;;;14.70;11.50;;;;;;;14.87;69.50;100708.06;107876;1253;71793;-71
2023/09/12 00:20:55;;;;;;;14.60;11.20;;;;;;;14.87;69.53;100710.95;108005;1253;73571;-70
2023/09/12 00:23:23;;;;;;;14.40;11.20;;;;;;;14.86;69.45;100708.77;108034;1256;72904;-73
2023/09/12 00:25:53;;;;;;;14.50;11.60;;;;;;;14.84;69.42;100706.36;108033;1253;61857;-71
2023/09/12 00:28:21;;;;;;;15.20;11.20;;;;;;;14.78;69.37;100709.25;108062;1254;59999;-71
2023/09/12 00:30:49;;;;;;;15.10;10.90;;;;;;;14.67;69.63;100707.35;107973;1259;72217;-71
2023/09/12 00:33:17;;;;;;;14.10;11.30;;;;;;;14.68;69.55;100705.09;107970;1258;74405;-71
2023/09/12 00:35:46;;;;;;;12.50;10.40;;;;;;;14.70;69.25;100704.91;108078;1254;72431;-72
2023/09/12 00:38:14;;;;;;;13.80;10.90;;;;;;;14.61;69.23;100702.40;108095;1253;61697;-72
2023/09/12 00:40:44;;;;;;;16.60;12.10;;;;;;;14.63;69.14;100702.76;108057;1254;59660;-74
2023/09/12 00:43:11;;;;;;;15.40;11.80;;;;;;;14.61;69.07;100700.52;108168;1253;73019;-70
2023/09/12 00:45:39;;;;;;;14.60;10.60;;;;;;;14.59;69.14;100702.79;107979;1253;72721;-72
2023/09/12 00:48:08;;;;;;;13.40;10.60;;;;;;;14.58;69.16;100701.88;107991;1258;71805;-72
2023/09/12 00:50:36;;;;;;;13.60;11.50;;;;;;;14.56;69.27;100700.70;108046;1254;61712;-72
2023/09/12 00:53:04;;;;;;;13.70;11.30;;;;;;;14.56;69.21;100707.12;108045;1258;59373;-72
2023/09/12 00:55:34;;;;;;;14.00;10.80;;;;;;;14.52;69.25;100706.21;108006;1254;73665;-72
2023/09/12 00:58:02;;;;;;;14.00;10.90;;;;;;;14.48;69.16;100703.80;108181;1253;72162;-72
2023/09/12 01:00:30;;;;;;;14.40;10.60;;;;;;;14.43;69.12;100707.21;107965;1254;72068;-72
2023/09/12 01:02:57;;;;;;;13.80;10.20;;;;;;;14.37;69.24;100708.70;107642;1254;61755;-72
2023/09/12 01:05:26;;;;;;;15.00;11.10;;;;;;;14.31;69.31;100707.35;107977;1258;59098;-73
2023/09/12 01:07:57;;;;;;;14.10;11.00;;;;;;;14.27;69.50;100711.40;108061;1253;72824;-71
2023/09/12 01:10:24;;;;;;;14.20;10.80;;;;;;;14.25;69.56;100712.39;108001;1253;71574;-71
2023/09/12 01:12:52;;;;;;;13.70;10.80;;;;;;;14.24;69.52;100711.89;107756;1254;70403;-72
2023/09/12 01:15:20;;;;;;;13.90;11.10;;;;;;;14.23;69.43;100710.92;108009;1253;62021;-71
2023/09/12 01:17:48;;;;;;;14.30;11.80;;;;;;;14.23;69.48;100707.50;108089;1257;60084;-71
2023/09/12 01:20:24;;;;;;;14.30;11.40;;;;;;;14.20;69.49;100708.00;107764;1254;71827;-72
2023/09/12 01:23:04;;;;;;;14.10;11.40;;;;;;;14.18;69.52;100707.80;108048;1253;72750;-71
2023/09/12 01:25:41;;;;;;;14.00;10.80;;;;;;;14.16;69.44;100709.85;108064;1258;72024;-74
2023/09/12 01:28:09;;;;;;;14.70;10.60;;;;;;;14.14;69.32;100711.09;107807;1253;61673;-72
2023/09/12 01:30:38;;;;;;;12.70;10.40;;;;;;;14.13;69.25;100704.97;107953;1253;59534;-72
2023/09/12 01:33:06;;;;;;;13.50;10.80;;;;;;;14.10;69.11;100702.30;108022;1254;73587;-72
2023/09/12 01:35:34;;;;;;;15.20;11.00;;;;;;;14.07;69.03;100704.35;108132;1254;72509;-72
2023/09/12 01:38:03;;;;;;;13.90;10.70;;;;;;;14.03;68.96;100700.72;108064;1257;72708;-72
2023/09/12 01:40:49;;;;;;;14.80;11.20;;;;;;;13.98;68.84;100703.60;107945;1253;60816;-70
2023/09/12 01:43:20;;;;;;;13.90;11.10;;;;;;;13.91;68.89;100703.80;108082;1258;60040;-72
2023/09/12 01:45:53;;;;;;;15.10;11.40;;;;;;;13.82;68.89;100704.52;108420;1253;73506;-72
2023/09/12 01:48:23;;;;;;;14.50;11.30;;;;;;;13.78;68.98;100703.52;108026;1253;71463;-72
2023/09/12 01:50:51;;;;;;;14.50;10.50;;;;;;;13.74;69.05;100702.52;107929;1253;71748;-73
2023/09/12 01:53:19;;;;;;;13.00;11.00;;;;;;;13.73;69.20;100705.20;107659;1254;64318;-72
2023/09/12 01:55:47;;;;;;;13.50;10.90;;;;;;;13.73;69.14;100706.98;107663;1253;59968;-72
2023/09/12 01:58:14;;;;;;;12.80;10.70;;;;;;;13.71;69.25;100708.75;107872;1253;71801;-73
2023/09/12 02:00:42;;;;;;;13.50;11.30;;;;;;;13.70;69.14;100706.29;107991;1253;71469;-72
2023/09/12 02:03:10;;;;;;;13.50;10.70;;;;;;;13.69;69.23;100710.86;108028;1253;72458;-72
2023/09/12 02:05:38;;;;;;;13.80;11.00;;;;;;;13.68;69.22;100708.64;108050;1256;60467;-72
2023/09/12 02:08:05;;;;;;;13.30;11.40;;;;;;;13.67;69.11;100706.73;107963;1254;60068;-72
2023/09/12 02:10:34;;;;;;;15.70;10.90;;;;;;;13.67;69.22;100703.40;108030;1253;72183;-72
2023/09/12 02:13:02;;;;;;;13.60;10.90;;;;;;;13.67;69.14;100704.10;107996;1253;72769;-72
2023/09/12 02:15:31;;;;;;;13.10;10.90;;;;;;;13.67;69.21;100703.14;108027;1253;71781;-71
2023/09/12 02:17:58;;;;;;;13.40;10.20;;;;;;;13.58;69.21;100705.80;107946;1253;61702;-71
2023/09/12 02:20:26;;;;;;;15.60;11.10;;;;;;;13.49;69.28;100701.95;107920;1254;59662;-72
2023/09/12 02:22:55;;;;;;;12.90;10.70;;;;;;;13.44;69.29;100699.39;108278;1253;72089;-72
2023/09/12 02:25:23;;;;;;;13.70;10.80;;;;;;;13.39;69.39;100700.90;108070;1253;72810;-72
2023/09/12 02:27:50;;;;;;;13.60;9.90;;;;;;;13.36;69.51;100703.28;107845;1260;71700;-72
2023/09/12 02:30:18;;;;;;;13.20;10.70;;;;;;;13.40;69.43;100705.52;108042;1253;60571;-72
2023/09/12 02:32:45;;;;;;;13.10;10.20;;;;;;;13.36;69.41;100706.33;108019;1253;60352;-71
2023/09/12 02:35:13;;;;;;;12.80;10.50;;;;;;;13.38;69.51;100707.83;107890;1253;73965;-71
2023/09/12 02:37:41;;;;;;;12.50;9.90;;;;;;;13.44;69.23;100703.68;107898;1253;71742;-71
2023/09/12 02:40:11;;;;;;;12.80;10.20;;;;;;;13.46;69.23;100702.86;108037;1256;71368;-71
2023/09/12 02:42:40;;;;;;;11.40;10.10;;;;;;;13.45;69.09;100705.29;108050;1256;60519;-72
2023/09/12 02:45:08;;;;;;;15.60;10.20;;;;;;;13.44;69.14;100703.58;108054;1253;61202;-72
2023/09/12 02:47:36;;;;;;;12.40;10.00;;;;;;;13.43;68.95;100703.63;107938;1253;73715;-71
2023/09/12 02:50:04;;;;;;;13.40;10.10;;;;;;;13.42;68.97;100708.67;107824;1254;71597;-71
2023/09/12 02:52:32;;;;;;;15.10;10.60;;;;;;;13.41;69.00;100708.73;107809;1253;71599;-71
2023/09/12 02:55:00;;;;;;;13.80;10.50;;;;;;;13.38;68.98;100708.10;107823;1254;61634;-72
2023/09/12 02:57:27;;;;;;;12.60;9.80;;;;;;;13.37;69.08;100712.29;107969;1253;60299;-72
2023/09/12 02:59:55;;;;;;;11.90;9.50;;;;;;;13.36;69.12;100707.58;108026;1253;72667;-72
2023/09/12 03:02:22;;;;;;;13.10;10.00;;;;;;;13.36;69.19;100711.38;107857;1253;71391;-72
2023/09/12 03:04:50;;;;;;;12.90;9.90;;;;;;;13.35;69.18;100711.63;107932;1256;72508;-72
2023/09/12 03:07:18;;;;;;;11.80;9.80;;;;;;;13.35;69.16;100708.31;107949;1256;60782;-72
2023/09/12 03:09:49;;;;;;;11.30;9.50;;;;;;;13.34;69.10;100711.64;107967;1253;60474;-73
2023/09/12 03:12:17;;;;;;;11.70;9.40;;;;;;;13.29;69.05;100709.98;108028;1253;73905;-72
2023/09/12 03:14:44;;;;;;;10.70;8.90;;;;;;;13.20;69.01;100711.48;108041;1253;72310;-73
2023/09/12 03:17:12;;;;;;;12.20;9.50;;;;;;;13.12;69.15;100712.61;107985;1253;71534;-72
2023/09/12 03:19:40;;;;;;;10.80;8.70;;;;;;;13.07;69.44;100713.11;108050;1253;61668;-71
2023/09/12 03:22:07;;;;;;;12.10;9.60;;;;;;;13.06;69.48;100716.11;108027;1253;60467;-72
2023/09/12 03:24:35;;;;;;;10.40;8.70;;;;;;;13.06;69.49;100715.90;107974;1253;72989;-72
2023/09/12 03:27:04;;;;;;;11.10;9.20;;;;;;;13.07;69.58;100720.77;107927;1254;71417;-72
2023/09/12 03:29:33;;;;;;;12.20;9.10;;;;;;;13.08;69.67;100719.42;108071;1253;71415;-72
2023/09/12 03:32:00;;;;;;;12.70;9.00;;;;;;;13.10;69.57;100716.27;107981;1254;61740;-72
2023/09/12 03:34:29;;;;;;;11.40;9.30;;;;;;;13.11;69.54;100714.77;108063;1253;60071;-72
2023/09/12 03:36:56;;;;;;;10.20;8.50;;;;;;;13.13;69.62;100716.74;107912;1253;73839;-71
2023/09/12 03:39:24;;;;;;;11.80;9.30;;;;;;;13.16;69.59;100717.05;107879;1253;72757;-72
2023/09/12 03:41:51;;;;;;;11.80;9.00;;;;;;;13.17;69.51;100720.39;107858;1256;71689;-72
2023/09/12 03:44:19;;;;;;;12.60;9.50;;;;;;;13.19;69.49;100721.18;107814;1253;60474;-73
2023/09/12 03:46:47;;;;;;;10.80;8.80;;;;;;;13.19;69.44;100717.16;107972;1253;60537;-72
2023/09/12 03:49:15;;;;;;;12.60;9.50;;;;;;;13.17;69.45;100718.13;107959;1254;73857;-72
2023/09/12 03:51:44;;;;;;;13.30;8.80;;;;;;;13.15;69.65;100718.88;107956;1253;75391;-72
2023/09/12 03:54:13;;;;;;;11.00;9.30;;;;;;;13.18;69.71;100718.14;108112;1253;71055;-72
2023/09/12 03:56:41;;;;;;;11.50;9.00;;;;;;;13.23;69.76;100722.63;107947;1253;61724;-72
2023/09/12 03:59:13;;;;;;;10.80;9.40;;;;;;;13.23;69.88;100723.13;107991;1253;60386;-72
2023/09/12 04:01:41;;;;;;;11.60;8.90;;;;;;;13.31;69.82;100725.60;107985;1253;73474;-72
2023/09/12 04:04:09;;;;;;;11.30;8.40;;;;;;;13.35;69.82;100726.24;107930;1258;71660;-71
2023/09/12 04:06:38;;;;;;;11.50;8.10;;;;;;;13.39;69.77;100730.48;107938;1258;72700;-72
2023/09/12 04:09:06;;;;;;;12.20;9.10;;;;;;;13.42;69.78;100733.30;107804;1254;60522;-71
2023/09/12 04:11:34;;;;;;;11.00;8.40;;;;;;;13.45;69.69;100733.67;107863;1254;60305;-72
2023/09/12 04:14:14;;;;;;;10.50;8.70;;;;;;;13.50;69.70;100734.27;107784;1253;74877;-72
2023/09/12 04:16:42;;;;;;;11.00;7.90;;;;;;;13.56;69.62;100734.25;108001;1253;72771;-72
2023/09/12 04:19:09;;;;;;;10.60;7.90;;;;;;;13.62;69.77;100734.65;107927;1253;72966;-73
2023/09/12 04:21:38;;;;;;;10.40;8.00;;;;;;;13.70;69.68;100734.53;107928;1258;61816;-72
2023/09/12 04:24:06;;;;;;;12.60;9.20;;;;;;;13.76;69.70;100738.38;107919;1254;60480;-72
2023/09/12 04:26:34;;;;;;;12.40;9.60;;;;;;;13.81;69.59;100738.04;108110;1253;73866;-72
2023/09/12 04:29:02;;;;;;;12.00;9.30;;;;;;;13.86;69.86;100742.36;107963;1254;72299;-72
2023/09/12 04:31:30;;;;;;;14.40;10.00;;;;;;;13.93;69.88;100741.75;108058;1253;70637;-72
2023/09/12 04:33:58;;;;;;;14.60;10.60;;;;;;;14.01;69.99;100740.22;108087;1256;60658;-73
2023/09/12 04:36:26;;;;;;;14.40;10.90;;;;;;;14.11;70.08;100737.38;107866;1253;60433;-72
2023/09/12 04:38:53;;;;;;;15.20;12.10;;;;;;;14.23;70.23;100740.45;107962;1253;73895;-73
2023/09/12 04:41:21;;;;;;;12.70;11.10;;;;;;;14.31;70.26;100740.30;107896;1256;73408;-73
2023/09/12 04:43:50;;;;;;;18.20;12.50;;;;;;;14.39;70.36;100740.77;107923;1260;71346;-73
2023/09/12 04:46:17;;;;;;;16.40;12.60;;;;;;;14.42;70.47;100740.33;107919;1256;61781;-73
2023/09/12 04:48:45;;;;;;;16.40;13.50;;;;;;;14.46;70.55;100741.44;107723;1252;60301;-73
2023/09/12 04:51:13;;;;;;;16.20;13.50;;;;;;;14.54;70.92;100737.70;107794;1259;73881;-73
2023/09/12 04:53:41;;;;;;;17.60;14.50;;;;;;;14.64;71.03;100741.67;107845;1254;72705;-73
2023/09/12 04:56:09;;;;;;;17.30;14.30;;;;;;;14.76;71.20;100747.52;107824;1256;74378;-73
2023/09/12 04:58:38;;;;;;;18.10;15.40;;;;;;;14.87;71.31;100744.95;107983;1253;62379;-72
2023/09/12 05:01:05;;;;;;;21.40;15.80;;;;;;;14.92;71.27;100744.54;107870;1253;60561;-72
2023/09/12 05:03:33;;;;;;;22.10;17.10;;;;;;;15.00;71.36;100745.82;107826;1257;73874;-72
2023/09/12 05:06:01;;;;;;;21.10;17.10;;;;;;;15.11;71.38;100747.02;107699;1260;71603;-72
2023/09/12 05:08:29;;;;;;;21.40;17.40;;;;;;;15.25;71.39;100747.88;107826;1253;71470;-72
2023/09/12 05:10:57;;;;;;;21.70;16.60;;;;;;;15.39;71.33;100745.14;107827;1253;60401;-73
2023/09/12 05:13:28;;;;;;;18.40;16.00;;;;;;;15.53;71.31;100745.11;107709;1253;60119;-71
2023/09/12 05:15:56;;;;;;;19.50;15.90;;;;;;;15.68;71.30;100744.00;107855;1254;73090;-71
2023/09/12 05:18:24;;;;;;;21.50;16.10;;;;;;;15.81;71.25;100745.92;107930;1257;71610;-72
2023/09/12 05:20:52;;;;;;;18.20;15.30;;;;;;;15.94;71.11;100744.52;107647;1256;71275;-73
2023/09/12 05:23:20;;;;;;;21.10;15.60;;;;;;;16.05;71.03;100740.83;107960;1253;60738;-72
2023/09/12 05:25:47;;;;;;;19.80;15.80;;;;;;;16.18;70.95;100743.20;108015;1253;60324;-72
2023/09/12 05:28:16;;;;;;;19.60;15.20;;;;;;;16.31;70.67;100744.42;107971;1253;72948;-72
2023/09/12 05:30:48;;;;;;;18.60;15.10;;;;;;;16.44;70.48;100739.73;107858;1253;71739;-72
2023/09/12 05:33:15;;;;;;;18.00;14.60;;;;;;;16.57;70.23;100740.92;107879;1253;72973;-72
2023/09/12 05:35:47;;;;;;;17.10;14.70;;;;;;;16.72;70.08;100739.41;107885;1253;63718;-74
2023/09/12 05:38:14;;;;;;;19.50;14.00;;;;;;;16.85;69.79;100742.09;107822;1253;60384;-72
2023/09/12 05:40:43;;;;;;;16.80;14.20;;;;;;;16.98;69.61;100743.88;107957;1253;72679;-71
2023/09/12 05:43:10;;;;;;;17.10;13.90;;;;;;;17.15;69.30;100742.14;107930;1253;70681;-72
2023/09/12 05:45:38;;;;;;;16.90;14.00;;;;;;;17.29;68.95;100744.33;108025;1253;72426;-73
2023/09/12 05:48:06;;;;;;;17.60;13.80;;;;;;;17.42;68.48;100740.95;107745;1253;60469;-73
2023/09/12 05:50:36;;;;;;;16.80;13.40;;;;;;;17.55;68.02;100746.71;107921;1253;60451;-73
2023/09/12 05:53:05;;;;;;;17.20;13.90;;;;;;;17.68;67.60;100752.30;107959;1254;72623;-72
2023/09/12 05:55:32;;;;;;;20.30;13.90;;;;;;;17.78;67.01;100748.85;108124;1253;72712;-72
2023/09/12 05:58:00;;;;;;;16.30;13.90;;;;;;;17.89;66.76;100753.02;107894;1253;72478;-72
2023/09/12 06:00:28;;;;;;;16.20;13.70;;;;;;;18.03;66.30;100747.95;107924;1253;61815;-73
2023/09/12 06:02:56;;;;;;;16.70;13.30;;;;;;;18.17;65.76;100749.94;107875;1253;60448;-73
2023/09/12 06:05:24;;;;;;;19.30;14.40;;;;;;;18.28;65.38;100747.60;107954;1253;74079;-73
2023/09/12 06:07:53;;;;;;;17.90;13.60;;;;;;;18.39;64.89;100743.94;107947;1253;71436;-73
2023/09/12 06:10:21;;;;;;;15.40;12.40;;;;;;;18.50;64.27;100747.48;107915;1253;71454;-73
2023/09/12 06:12:49;;;;;;;16.30;12.50;;;;;;;18.64;63.74;100747.70;107912;1253;61461;-74
2023/09/12 06:15:17;;;;;;;15.90;13.40;;;;;;;18.76;63.18;100747.95;108003;1254;60538;-73
2023/09/12 06:17:45;;;;;;;17.00;12.80;;;;;;;18.87;62.63;100746.29;107866;1260;73924;-73
2023/09/12 06:20:15;;;;;;;14.00;11.70;;;;;;;19.01;62.17;100747.27;107952;1253;71472;-73
2023/09/12 06:22:43;;;;;;;16.20;12.20;;;;;;;19.16;61.79;100746.01;107890;1255;71751;-73
2023/09/12 06:25:15;;;;;;;;;;;;;;;19.32;61.27;100745.45;107919;1253;60868;-72
2023/09/12 06:27:43;;;;;;;14.40;11.50;;;;;;;19.48;60.94;100747.69;107868;1253;60305;-73
2023/09/12 06:30:11;;;;;;;13.70;11.30;;;;;;;19.63;60.18;100744.20;107962;1253;72736;-72
2023/09/12 06:32:39;;;;;;;14.50;11.60;;;;;;;19.77;59.53;100744.71;107992;1253;71422;-73
2023/09/12 06:35:08;;;;;;;13.80;11.50;;;;;;;19.90;58.83;100750.20;107936;1253;72682;-73
2023/09/12 06:37:38;;;;;;;13.30;10.50;;;;;;;20.02;58.35;100748.39;107942;1254;60470;-72
2023/09/12 06:40:07;;;;;;;15.50;10.90;;;;;;;20.17;57.46;100751.98;107940;1257;60618;-73
2023/09/12 06:42:34;;;;;;;12.80;10.70;;;;;;;20.27;56.58;100751.64;108008;1253;74926;-72
2023/09/12 06:45:02;;;;;;;14.70;10.90;;;;;;;20.35;55.95;100750.22;107949;1258;71308;-73
2023/09/12 06:47:30;;;;;;;14.50;11.70;;;;;;;20.43;55.62;100753.14;107876;1255;72423;-73
2023/09/12 06:49:57;;;;;;;14.30;12.00;;;;;;;20.55;55.28;100752.63;107854;1253;60426;-73
2023/09/12 06:52:25;;;;;;;17.60;12.90;;;;;;;20.69;55.12;100750.59;107905;1253;60234;-73
2023/09/12 06:54:52;;;;;;;14.50;12.80;;;;;;;20.82;54.89;100750.39;108048;1252;73831;-73
2023/09/12 06:57:20;;;;;;;15.00;11.80;;;;;;;20.94;54.62;100747.75;107945;1253;71180;-72
2023/09/12 06:59:49;;;;;;;14.00;12.20;;;;;;;21.05;54.09;100744.47;107800;1253;72498;-72
2023/09/12 07:02:18;;;;;;;14.60;10.50;;;;;;;21.12;53.77;100747.20;107850;1256;60684;-72
2023/09/12 07:04:46;;;;;;;14.00;10.60;;;;;;;21.24;53.48;100748.86;107869;1253;59225;-74
2023/09/12 07:07:13;;;;;;;13.20;10.70;;;;;;;21.34;52.98;100746.01;107941;1252;71760;-72
2023/09/12 07:09:41;;;;;;;13.90;11.10;;;;;;;21.45;52.53;100744.16;107950;1258;70286;-73
2023/09/12 07:12:09;;;;;;;12.90;10.40;;;;;;;21.58;51.84;100747.88;107857;1254;72760;-72
2023/09/12 07:14:38;;;;;;;14.10;10.50;;;;;;;21.70;51.64;100747.66;107923;1256;60325;-73
2023/09/12 07:17:06;;;;;;;11.70;10.30;;;;;;;21.82;51.31;100744.02;107979;1253;60331;-73
2023/09/12 07:19:34;;;;;;;12.70;10.40;;;;;;;21.94;50.79;100743.15;107881;1253;73860;-73
2023/09/12 07:22:01;;;;;;;12.30;9.50;;;;;;;22.05;50.02;100746.86;107939;1254;71436;-73
2023/09/12 07:24:29;;;;;;;10.70;9.30;;;;;;;22.17;49.53;100745.30;108004;1254;72457;-73
2023/09/12 07:26:58;;;;;;;16.40;10.00;;;;;;;22.27;49.20;100746.94;107975;1253;60463;-73
2023/09/12 07:29:27;;;;;;;12.20;9.80;;;;;;;22.36;48.80;100750.85;107810;1253;60426;-73
2023/09/12 07:31:55;;;;;;;12.30;9.80;;;;;;;22.44;48.41;100751.16;107907;1258;74816;-73
2023/09/12 07:34:27;;;;;;;13.40;10.20;;;;;;;22.52;47.63;100751.52;107923;1253;72811;-73
2023/09/12 07:36:55;;;;;;;12.90;9.60;;;;;;;22.59;47.40;100750.64;107828;1253;72697;-73
2023/09/12 07:39:25;;;;;;;13.50;10.50;;;;;;;22.66;47.35;100748.29;107907;1254;60481;-73
2023/09/12 07:41:52;;;;;;;11.90;9.90;;;;;;;22.73;47.01;100747.56;107783;1253;60345;-72
2023/09/12 07:44:20;;;;;;;11.50;9.50;;;;;;;22.82;46.67;100746.78;107938;1253;73937;-72
2023/09/12 07:46:48;;;;;;;18.00;11.70;;;;;;;22.91;46.61;100752.11;107935;1253;72028;-73
2023/09/12 07:49:16;;;;;;;11.70;9.50;;;;;;;23.02;46.89;100748.91;107843;1256;72771;-73
2023/09/12 07:51:43;;;;;;;13.90;11.30;;;;;;;23.10;46.11;100752.14;107796;1253;60478;-73
2023/09/12 07:54:11;;;;;;;11.90;10.10;;;;;;;23.08;46.13;100750.05;107725;1253;60193;-73
2023/09/12 07:56:39;;;;;;;14.10;10.30;;;;;;;23.11;46.75;100750.01;107855;1253;72872;-73
2023/09/12 07:59:10;;;;;;;12.10;9.70;;;;;;;23.21;46.69;100754.62;107893;1253;73189;-73
2023/09/12 08:01:38;;;;;;;11.80;9.90;;;;;;;23.32;46.11;100752.20;107949;1254;72655;-73
2023/09/12 08:04:06;;;;;;;12.90;9.70;;;;;;;23.43;45.26;100753.48;107862;1253;60474;-73
2023/09/12 08:06:34;;;;;;;11.00;8.50;;;;;;;23.50;44.96;100757.39;108027;1253;60988;-73
2023/09/12 08:09:21;;;;;;;15.70;8.90;;;;;;;23.61;43.72;100752.21;107846;1258;76105;-72
2023/09/12 08:11:49;;;;;;;12.60;8.60;;;;;;;23.73;43.83;100755.41;107908;1254;72428;-72
2023/09/12 08:14:20;;;;;;;10.50;8.00;;;;;;;23.85;44.02;100754.41;107819;1258;72675;-73
2023/09/12 08:16:47;;;;;;;9.70;8.70;;;;;;;23.98;43.61;100755.59;107949;1257;60519;-72
2023/09/12 08:19:15;;;;;;;9.90;7.50;;;;;;;24.10;43.42;100750.33;107983;1253;60420;-72
2023/09/12 08:21:46;;;;;;;8.70;7.60;;;;;;;24.23;42.42;100750.35;107912;1253;73215;-73
2023/09/12 08:24:13;;;;;;;10.40;7.80;;;;;;;24.32;41.78;100750.52;107793;1253;73169;-73
2023/09/12 08:26:42;;;;;;;10.90;8.40;;;;;;;24.34;42.01;100751.92;107908;1253;71268;-72
2023/09/12 08:29:10;;;;;;;11.90;7.90;;;;;;;24.30;42.25;100752.50;108024;1254;60462;-72
2023/09/12 08:31:38;;;;;;;10.70;8.30;;;;;;;24.29;42.44;100753.94;107902;1253;60147;-72
2023/09/12 08:34:07;;;;;;;10.10;7.40;;;;;;;24.25;42.86;100753.05;107822;1254;73197;-73
2023/09/12 08:36:36;;;;;;;8.40;6.60;;;;;;;24.35;42.50;100750.44;108067;1253;72680;-72
2023/09/12 08:39:07;;;;;;;9.30;6.30;;;;;;;24.49;41.24;100751.14;107834;1253;71430;-72
2023/09/12 08:41:35;;;;;;;8.80;6.10;;;;;;;24.63;40.91;100747.95;107996;1258;60351;-73
2023/09/12 08:44:05;;;;;;;8.10;7.00;;;;;;;24.73;41.28;100748.92;107623;1253;60991;-73
2023/09/12 08:46:33;;;;;;;10.00;6.70;;;;;;;24.85;41.42;100748.37;107942;1253;72603;-73
2023/09/12 08:49:00;;;;;;;9.30;6.30;;;;;;;24.96;41.42;100741.72;107994;1253;72750;-73
2023/09/12 08:51:28;;;;;;;9.00;6.50;;;;;;;25.03;41.00;100744.27;107979;1253;72492;-73
2023/09/12 08:53:56;;;;;;;9.90;5.70;;;;;;;25.14;40.25;100744.93;107972;1258;60513;-72
2023/09/12 08:56:24;;;;;;;7.70;5.50;;;;;;;25.25;39.92;100743.69;108155;1254;60158;-72
2023/09/12 08:58:52;;;;;;;9.60;5.30;;;;;;;25.38;39.16;100742.92;107916;1256;73904;-73
2023/09/12 09:01:21;;;;;;;7.40;5.00;;;;;;;25.52;38.71;100744.36;108001;1257;74883;-72
2023/09/12 09:03:49;;;;;;;7.30;4.90;;;;;;;25.67;38.71;100741.27;107792;1253;71372;-70
2023/09/12 09:06:20;;;;;;;8.40;5.30;;;;;;;25.79;37.68;100739.11;107907;1253;60551;-72
2023/09/12 09:08:50;;;;;;;7.60;4.90;;;;;;;25.80;37.20;100740.80;107921;1253;60406;-73
2023/09/12 09:11:18;;;;;;;6.70;4.30;;;;;;;25.81;37.46;100740.06;108020;1253;73878;-72
2023/09/12 09:13:47;;;;;;;6.10;3.90;;;;;;;25.83;37.08;100739.88;107924;1253;72823;-72
2023/09/12 09:16:21;;;;;;;6.70;4.20;;;;;;;25.90;37.02;100741.67;108015;1253;71501;-72
2023/09/12 09:18:53;;;;;;;5.70;4.20;;;;;;;25.96;37.25;100745.34;107792;1253;60419;-72
2023/09/12 09:21:25;;;;;;;8.00;4.40;;;;;;;26.06;36.25;100743.99;107862;1258;60290;-72
2023/09/12 09:23:54;;;;;;;7.40;4.20;;;;;;;26.11;35.96;100744.25;107793;1253;73643;-72
2023/09/12 09:26:22;;;;;;;6.90;4.20;;;;;;;26.05;36.34;100741.09;107910;1254;74770;-73
2023/09/12 09:29:09;;;;;;;6.60;4.00;;;;;;;26.02;36.19;100739.66;107927;1254;71460;-72
2023/09/12 09:31:41;;;;;;;7.00;3.80;;;;;;;26.07;36.43;100742.20;107991;1253;61127;-72
2023/09/12 09:34:16;;;;;;;5.90;4.00;;;;;;;26.15;36.23;100736.69;107997;1253;62236;-72
2023/09/12 09:36:51;;;;;;;5.90;4.10;;;;;;;26.26;35.87;100729.79;107932;1253;74258;-72
2023/09/12 09:39:20;;;;;;;6.20;4.00;;;;;;;26.29;35.72;100733.85;107962;1253;72840;-72
2023/09/12 09:41:49;;;;;;;6.80;4.00;;;;;;;26.32;35.65;100734.23;107901;1256;72662;-73
2023/09/12 09:44:17;;;;;;;6.90;4.20;;;;;;;26.32;35.37;100732.65;108010;1255;60412;-73
2023/09/12 09:46:45;;;;;;;5.30;4.00;;;;;;;26.25;35.88;100730.05;107867;1255;60204;-73
2023/09/12 09:49:18;;;;;;;5.50;3.90;;;;;;;26.19;35.20;100728.71;107851;1253;72585;-73
2023/09/12 09:51:48;;;;;;;7.10;4.10;;;;;;;26.19;35.51;100726.67;107930;1253;72909;-73
2023/09/12 09:54:16;;;;;;;7.20;4.10;;;;;;;26.28;35.29;100725.14;107902;1253;72662;-72
2023/09/12 09:56:53;;;;;;;7.60;4.00;;;;;;;26.33;34.71;100725.02;107911;1253;60421;-72
2023/09/12 09:59:22;;;;;;;4.40;3.40;;;;;;;26.32;34.75;100724.83;107887;1253;60333;-72
2023/09/12 10:01:51;;;;;;;5.40;3.30;;;;;;;26.38;33.85;100719.95;107862;1253;73991;-77
2023/09/12 10:04:19;;;;;;;6.20;3.60;;;;;;;26.44;33.10;100720.22;107947;1253;71617;-78
2023/09/12 10:06:47;;;;;;;5.10;2.90;;;;;;;26.50;33.16;100725.16;107961;1253;72809;-79
2023/09/12 10:09:14;;;;;;;5.40;2.60;;;;;;;26.57;32.74;100723.48;107995;1253;60315;-78
2023/09/12 10:11:43;;;;;;;5.00;3.00;;;;;;;26.65;32.59;100719.80;107889;1253;60559;-79
2023/09/12 10:14:11;;;;;;;7.20;3.00;;;;;;;26.77;32.31;100721.14;107845;1253;72627;-71
2023/09/12 10:16:44;;;;;;;6.00;3.40;;;;;;;26.86;31.58;100719.18;107767;1260;71615;-72
2023/09/12 10:19:27;;;;;;;5.00;2.70;;;;;;;26.93;31.78;100721.20;107830;1253;71454;-74
2023/09/12 10:33:34;;;;;;;4.00;2.50;;;;;;;27.28;28.79;100710.58;105736;1284;613653;-72
2023/09/12 10:36:11;;;;;;;6.20;2.40;;;;;;;27.48;27.41;100709.21;107064;1266;176177;-72
2023/09/12 10:38:44;;;;;;;4.30;2.40;;;;;;;27.45;28.11;100711.52;107227;1269;59534;-71
2023/09/12 10:41:13;;;;;;;4.90;2.30;;;;;;;27.38;27.99;100710.94;107268;1264;62138;-74
2023/09/12 10:43:42;;;;;;;3.90;2.20;;;;;;;27.25;28.06;100710.56;107299;1269;72713;-72
2023/09/12 10:46:10;;;;;;;12.70;3.10;;;;;;;27.24;27.48;100708.29;107338;1270;72504;-73
2023/09/12 10:48:40;;;;;;;5.10;2.40;;;;;;;27.21;27.10;100706.65;107335;1264;59539;-74
2023/09/12 10:51:08;;;;;;;4.60;2.30;;;;;;;27.16;26.70;100707.14;107677;1262;60070;-74
2023/09/12 10:53:36;;;;;;;4.80;2.30;;;;;;;27.06;26.89;100704.65;107783;1257;71112;-73
2023/09/12 10:56:07;;;;;;;4.60;2.50;;;;;;;27.02;28.00;100703.17;107851;1257;74956;-74
2023/09/12 10:59:07;;;;;;;5.10;2.40;;;;;;;27.17;28.11;100702.27;107667;1262;72289;-74
2023/09/12 11:01:36;;;;;;;4.90;2.60;;;;;;;27.35;27.71;100703.60;107541;1257;60248;-74
2023/09/12 11:04:19;;;;;;;5.30;2.90;;;;;;;27.42;26.63;100697.98;107600;1262;60390;-74
2023/09/12 11:17:40;;;;;;;5.80;3.30;;;;;;;27.84;24.59;100685.41;105374;1285;613088;-73
2023/09/12 11:20:11;;;;;;;5.30;3.00;;;;;;;28.03;24.58;100682.58;107083;1264;176767;-72
2023/09/12 11:22:43;;;;;;;7.50;2.70;;;;;;;28.02;24.72;100685.16;107205;1266;60550;-72
2023/09/12 11:25:25;;;;;;;4.80;2.90;;;;;;;27.98;25.47;100680.24;107206;1264;65291;-73
2023/09/12 11:27:56;;;;;;;5.20;2.90;;;;;;;27.97;25.66;100681.88;107224;1269;71607;-73
2023/09/12 11:30:30;;;;;;;7.40;3.00;;;;;;;28.00;25.51;100681.61;107206;1267;71787;-73
2023/09/12 11:32:59;;;;;;;7.40;2.90;;;;;;;28.08;26.17;100681.23;107211;1266;60647;-72
2023/09/12 11:35:28;;;;;;;7.00;3.40;;;;;;;28.17;26.36;100675.85;107210;1269;59190;-72
2023/09/12 11:37:58;;;;;;;5.50;3.00;;;;;;;28.26;26.32;100675.95;107264;1264;62243;-73